Time;durP1;ratioP1;P1;durP2;ratioP2;P2;SDS_P1;SDS_P2;PMS_P1;PMS_P2;Temp;Humidity;BMP_temperature;BMP_pressure;BME280_temperature;BME280_humidity;BME280_pressure;Samples;Min_cycle;Max_cycle;Signal;HPM_P1;HPM_P2
2023/11/10 00:02:42;;;;;;;2.20;2.10;;;11.60;37.10;;;;;;10263607;28;20225;-79
2023/11/10 00:07:46;;;;;;;2.10;1.90;;;11.50;37.20;;;;;;10272503;28;20235;-79
2023/11/10 00:12:49;;;;;;;2.40;2.20;;;11.50;37.00;;;;;;10270037;28;20230;-79
2023/11/10 00:17:55;;;;;;;2.07;1.97;;;11.50;37.00;;;;;;10276422;28;21670;-79
2023/11/10 00:22:58;;;;;;;5.23;1.97;;;11.40;37.10;;;;;;10273121;28;20376;-79
2023/11/10 00:28:03;;;;;;;2.17;1.97;;;11.40;36.90;;;;;;10271759;28;20231;-79
2023/11/10 00:33:07;;;;;;;2.43;1.93;;;11.40;37.00;;;;;;10272891;28;20212;-79
2023/11/10 00:38:11;;;;;;;2.40;2.20;;;11.30;36.70;;;;;;10269434;28;20285;-79
2023/11/10 00:43:14;;;;;;;1.73;1.63;;;11.40;36.60;;;;;;10271018;28;20319;-79
2023/11/10 00:48:18;;;;;;;1.90;1.80;;;11.30;36.50;;;;;;10273479;28;20235;-80
2023/11/10 00:53:25;;;;;;;2.67;2.47;;;11.30;36.80;;;;;;10273584;28;20239;-79
2023/11/10 00:58:29;;;;;;;2.10;2.00;;;11.30;36.60;;;;;;10269372;28;20844;-79
2023/11/10 01:03:33;;;;;;;2.60;2.17;;;11.30;36.60;;;;;;10271277;28;20752;-79
2023/11/10 01:08:37;;;;;;;2.30;2.10;;;11.30;36.80;;;;;;10271375;28;20718;-79
2023/11/10 01:13:40;;;;;;;2.30;2.20;;;11.20;36.40;;;;;;10271339;28;20311;-79
2023/11/10 01:18:45;;;;;;;2.23;2.03;;;11.20;36.40;;;;;;10271436;28;20230;-79
2023/11/10 01:23:50;;;;;;;2.23;2.10;;;11.10;36.70;;;;;;10271929;28;20317;-79
2023/11/10 01:28:53;;;;;;;2.20;2.00;;;11.10;36.60;;;;;;10266202;28;20298;-79
2023/11/10 01:33:58;;;;;;;2.20;2.10;;;11.00;36.70;;;;;;10274890;28;20981;-79
2023/11/10 01:39:04;;;;;;;2.30;2.03;;;11.00;37.20;;;;;;10272754;28;20231;-79
2023/11/10 01:44:08;;;;;;;2.60;2.40;;;10.90;36.90;;;;;;10268570;28;20319;-79
2023/11/10 01:49:15;;;;;;;2.90;2.10;;;10.90;37.10;;;;;;10272351;28;20243;-79
2023/11/10 01:54:20;;;;;;;2.13;1.93;;;11.00;37.30;;;;;;10268386;28;20238;-79
2023/11/10 01:59:24;;;;;;;2.60;2.00;;;10.90;37.10;;;;;;10265268;28;20807;-79
2023/11/10 02:04:28;;;;;;;2.43;2.23;;;11.00;37.30;;;;;;10269682;28;20255;-79
2023/11/10 02:09:32;;;;;;;2.57;2.27;;;11.00;37.40;;;;;;10265473;28;20678;-79
2023/11/10 02:14:36;;;;;;;3.50;2.00;;;11.00;37.40;;;;;;10269117;28;20239;-79
2023/11/10 02:19:41;;;;;;;2.10;1.90;;;11.00;37.30;;;;;;10268019;28;20642;-79
2023/11/10 02:24:47;;;;;;;2.13;1.90;;;11.10;37.30;;;;;;10266978;28;20257;-79
2023/11/10 02:29:52;;;;;;;2.33;2.13;;;11.10;37.20;;;;;;10269945;28;20227;-79
2023/11/10 02:34:55;;;;;;;1.90;1.80;;;11.20;37.30;;;;;;10270970;28;20270;-79
2023/11/10 02:39:58;;;;;;;1.97;1.87;;;11.10;37.20;;;;;;10271213;28;20232;-79
2023/11/10 02:45:04;;;;;;;2.40;2.20;;;11.10;37.20;;;;;;10269139;28;20299;-79
2023/11/10 02:50:08;;;;;;;2.00;1.90;;;11.20;37.30;;;;;;10266963;28;20220;-79
2023/11/10 02:55:12;;;;;;;2.90;2.03;;;11.20;37.20;;;;;;10269862;28;20231;-79
2023/11/10 03:00:17;;;;;;;3.67;2.03;;;11.20;37.20;;;;;;10270362;28;20254;-79
2023/11/10 03:05:20;;;;;;;2.57;2.30;;;11.30;37.30;;;;;;10270562;28;20228;-79
2023/11/10 03:10:25;;;;;;;1.90;1.80;;;11.20;37.00;;;;;;10265510;28;20239;-79
2023/11/10 03:15:29;;;;;;;2.57;2.10;;;11.30;37.30;;;;;;10272007;28;20250;-79
2023/11/10 03:20:32;;;;;;;2.40;2.10;;;11.30;37.30;;;;;;10273980;28;20965;-79
2023/11/10 03:25:35;;;;;;;2.33;2.13;;;11.20;37.00;;;;;;10282170;28;20598;-79
2023/11/10 03:30:40;;;;;;;2.43;2.20;;;11.20;37.10;;;;;;10275529;28;20917;-78
2023/11/10 03:35:44;;;;;;;3.20;2.00;;;11.10;37.20;;;;;;10276721;28;20748;-79
2023/11/10 03:40:49;;;;;;;2.20;2.10;;;11.10;37.10;;;;;;10276785;28;20241;-79
2023/11/10 03:45:55;;;;;;;2.43;2.20;;;11.10;37.10;;;;;;10274890;28;20315;-79
2023/11/10 03:50:58;;;;;;;2.37;2.17;;;11.20;37.30;;;;;;10275190;28;20278;-79
2023/11/10 03:56:02;;;;;;;2.60;2.20;;;11.20;37.10;;;;;;10277459;28;20224;-79
2023/11/10 04:01:11;;;;;;;2.40;2.20;;;11.20;37.00;;;;;;10269518;28;20254;-80
2023/11/10 04:06:15;;;;;;;2.13;2.03;;;11.20;37.10;;;;;;10272167;28;20306;-79
2023/11/10 04:11:19;;;;;;;2.70;2.50;;;11.10;37.00;;;;;;10277334;28;20716;-79
2023/11/10 04:16:24;;;;;;;2.40;2.30;;;11.10;36.90;;;;;;10277268;28;20253;-79
2023/11/10 04:21:29;;;;;;;3.03;2.53;;;11.10;37.10;;;;;;10277626;28;20902;-80
2023/11/10 04:26:32;;;;;;;2.60;2.40;;;11.10;37.10;;;;;;10276803;28;20367;-79
2023/11/10 04:31:38;;;;;;;2.80;2.37;;;11.10;37.00;;;;;;10270942;28;20238;-78
2023/11/10 04:36:43;;;;;;;2.60;2.40;;;11.10;37.10;;;;;;10270211;28;20235;-78
2023/11/10 04:41:47;;;;;;;2.53;2.33;;;11.10;37.00;;;;;;10269417;28;20234;-78
2023/11/10 04:46:53;;;;;;;2.40;2.20;;;11.00;36.90;;;;;;10270949;28;20319;-78
2023/11/10 04:51:57;;;;;;;4.87;4.40;;;11.00;37.20;;;;;;10270822;28;20231;-78
2023/11/10 04:57:00;;;;;;;3.60;2.40;;;11.00;37.00;;;;;;10265003;28;20228;-78
2023/11/10 05:02:05;;;;;;;2.60;2.40;;;10.90;37.00;;;;;;10260769;28;21084;-78
2023/11/10 05:07:08;;;;;;;2.77;2.57;;;10.80;37.20;;;;;;10269151;28;20253;-78
2023/11/10 05:12:12;;;;;;;3.03;2.83;;;10.80;37.20;;;;;;10265212;28;20234;-78
2023/11/10 05:17:16;;;;;;;2.90;2.70;;;10.70;37.00;;;;;;10273037;28;20338;-79
2023/11/10 05:22:20;;;;;;;4.17;3.00;;;10.60;37.30;;;;;;10262387;28;20255;-78
2023/11/10 05:27:23;;;;;;;3.03;2.63;;;10.60;37.00;;;;;;10256577;28;20290;-78
2023/11/10 05:32:28;;;;;;;3.87;2.77;;;10.50;37.00;;;;;;10270493;28;20231;-80
2023/11/10 05:37:32;;;;;;;3.20;2.90;;;10.50;37.30;;;;;;10264899;28;20791;-78
2023/11/10 05:42:35;;;;;;;3.40;2.67;;;10.50;37.30;;;;;;10266031;28;20899;-78
2023/11/10 05:47:40;;;;;;;3.10;2.90;;;10.40;37.40;;;;;;10272177;28;20228;-75
2023/11/10 05:52:44;;;;;;;3.20;2.70;;;10.40;37.70;;;;;;10274395;28;20238;-75
2023/11/10 05:57:48;;;;;;;3.00;2.73;;;10.30;37.50;;;;;;10272675;28;20240;-76
2023/11/10 06:02:52;;;;;;;3.20;2.90;;;10.20;37.60;;;;;;10272173;28;20314;-75
2023/11/10 06:07:55;;;;;;;3.63;2.70;;;10.20;37.90;;;;;;10272991;28;20231;-75
2023/11/10 06:13:00;;;;;;;4.37;3.57;;;10.20;37.90;;;;;;10273376;28;20229;-75
2023/11/10 06:18:05;;;;;;;8.87;6.83;;;10.30;38.10;;;;;;10275794;28;20233;-75
2023/11/10 06:23:10;;;;;;;5.57;4.47;;;10.30;38.70;;;;;;10274490;28;20234;-74
2023/11/10 06:28:13;;;;;;;5.30;4.80;;;10.40;38.20;;;;;;10274278;28;20239;-75
2023/11/10 06:33:18;;;;;;;5.00;4.47;;;10.50;38.10;;;;;;10275042;28;20239;-74
2023/11/10 06:38:21;;;;;;;4.80;4.23;;;10.50;38.10;;;;;;10275092;28;20290;-74
2023/11/10 06:43:25;;;;;;;5.73;5.13;;;10.60;37.90;;;;;;10276624;28;20313;-75
2023/11/10 06:48:29;;;;;;;7.97;6.83;;;10.70;38.00;;;;;;10276641;28;20246;-75
2023/11/10 06:53:32;;;;;;;7.37;6.20;;;10.80;38.10;;;;;;10275863;28;20247;-75
2023/11/10 06:58:35;;;;;;;4.33;3.90;;;10.90;37.70;;;;;;10283885;28;20237;-74
2023/11/10 07:03:42;;;;;;;3.40;3.10;;;10.90;37.60;;;;;;10284220;28;20648;-75
2023/11/10 07:08:45;;;;;;;4.07;2.83;;;11.00;37.80;;;;;;10284192;28;20836;-75
2023/11/10 07:13:49;;;;;;;2.53;2.33;;;10.90;37.50;;;;;;10281577;28;20223;-75
2023/11/10 07:18:54;;;;;;;3.90;2.70;;;10.90;37.60;;;;;;10266537;28;20228;-75
2023/11/10 07:23:57;;;;;;;2.73;2.53;;;10.90;37.80;;;;;;10250413;28;20238;-76
2023/11/10 07:29:03;;;;;;;2.70;2.20;;;10.80;37.80;;;;;;10250528;28;21132;-75
2023/11/10 07:34:09;;;;;;;2.40;1.80;;;10.80;38.00;;;;;;10249887;28;20348;-76
2023/11/10 07:39:13;;;;;;;1.63;1.53;;;10.90;38.80;;;;;;10260804;28;20238;-76
2023/11/10 07:44:18;;;;;;;1.90;1.80;;;10.90;38.70;;;;;;10276799;28;20227;-75
2023/11/10 07:49:22;;;;;;;1.53;1.43;;;11.10;38.90;;;;;;10282253;28;20298;-77
2023/11/10 07:54:28;;;;;;;1.60;1.50;;;11.20;39.10;;;;;;10282042;28;20231;-76
2023/11/10 07:59:32;;;;;;;1.70;1.60;;;11.30;38.90;;;;;;10282608;28;20230;-76
2023/11/10 08:04:38;;;;;;;2.40;1.50;;;11.40;38.90;;;;;;10280529;28;20906;-76
2023/11/10 08:09:41;;;;;;;1.50;1.27;;;11.50;38.90;;;;;;10280096;28;20602;-76
2023/11/10 08:14:45;;;;;;;1.50;1.40;;;11.60;38.80;;;;;;10281408;28;20780;-77
2023/11/10 08:19:49;;;;;;;1.17;1.17;;;11.60;39.00;;;;;;10280634;28;20240;-77
2023/11/10 08:24:53;;;;;;;1.07;1.03;;;11.70;39.20;;;;;;10280095;28;20722;-77
2023/11/10 08:29:56;;;;;;;1.40;1.13;;;11.70;39.00;;;;;;10284479;28;20251;-77
2023/11/10 08:35:05;;;;;;;1.07;1.03;;;11.70;38.90;;;;;;10289376;28;20228;-77
2023/11/10 08:40:09;;;;;;;1.10;1.00;;;11.70;40.40;;;;;;10289928;28;20307;-77
2023/11/10 08:45:14;;;;;;;0.90;0.90;;;11.70;39.40;;;;;;10288207;28;20733;-77
2023/11/10 08:50:19;;;;;;;1.90;1.07;;;11.70;39.30;;;;;;10287189;28;20243;-77
2023/11/10 08:55:22;;;;;;;1.60;1.50;;;11.60;39.60;;;;;;10287661;28;20232;-77
2023/11/10 09:00:26;;;;;;;1.30;1.20;;;11.60;39.50;;;;;;10289441;28;20235;-76
2023/11/10 09:05:31;;;;;;;1.20;1.20;;;11.60;39.70;;;;;;10289064;28;20231;-76
2023/11/10 09:10:35;;;;;;;0.97;0.97;;;11.50;40.10;;;;;;10289367;28;20232;-76
2023/11/10 09:15:38;;;;;;;1.50;1.07;;;11.40;39.90;;;;;;10289247;28;20399;-76
2023/11/10 09:20:56;;;;;;;1.70;1.60;;;11.40;40.10;;;;;;10287795;28;20293;-76
2023/11/10 09:25:59;;;;;;;0.83;0.83;;;11.30;41.00;;;;;;10287371;28;20319;-76
2023/11/10 09:31:04;;;;;;;0.90;0.90;;;11.30;40.30;;;;;;10286443;28;20228;-76
2023/11/10 09:36:09;;;;;;;0.70;0.70;;;11.30;40.60;;;;;;10323061;28;20255;-76
2023/11/10 09:41:15;;;;;;;0.60;0.60;;;11.30;41.10;;;;;;10327216;28;20231;-76
2023/11/10 09:46:20;;;;;;;0.50;0.50;;;11.40;41.20;;;;;;10323446;28;20281;-77
2023/11/10 09:51:26;;;;;;;0.50;0.50;;;11.40;41.20;;;;;;10295365;28;20294;-77
2023/11/10 09:56:33;;;;;;;0.60;0.60;;;11.50;40.70;;;;;;10280756;28;20238;-77
2023/11/10 10:01:37;;;;;;;0.70;0.70;;;11.60;40.60;;;;;;10281171;28;20267;-76
2023/11/10 10:06:42;;;;;;;0.70;0.70;;;11.60;40.20;;;;;;10280436;28;20274;-76
2023/11/10 10:11:46;;;;;;;0.90;0.90;;;11.70;40.40;;;;;;10282979;28;20223;-76
2023/11/10 10:16:54;;;;;;;0.63;0.63;;;11.70;40.20;;;;;;10283775;28;20231;-75
2023/11/10 10:22:00;;;;;;;0.90;0.90;;;11.80;40.80;;;;;;10288261;28;20710;-76
2023/11/10 10:27:03;;;;;;;1.30;1.20;;;12.00;40.50;;;;;;10283626;28;20223;-76
2023/11/10 10:32:06;;;;;;;1.10;1.00;;;12.00;40.20;;;;;;10288633;28;20310;-76
2023/11/10 10:37:11;;;;;;;0.83;0.83;;;12.20;40.50;;;;;;10286474;28;20718;-76
2023/11/10 10:42:15;;;;;;;1.20;1.20;;;12.30;40.10;;;;;;10288989;28;20672;-77
2023/11/10 10:47:19;;;;;;;0.93;0.93;;;12.40;39.90;;;;;;10288691;28;20239;-76
2023/11/10 10:52:27;;;;;;;1.30;1.20;;;12.50;39.70;;;;;;10291989;28;20254;-77
2023/11/10 10:57:30;;;;;;;1.47;1.23;;;12.60;40.10;;;;;;10291728;28;20334;-76
2023/11/10 11:02:36;;;;;;;0.80;0.80;;;12.70;40.10;;;;;;10290046;28;20282;-75
2023/11/10 11:08:00;;;;;;;1.00;0.90;;;12.90;39.70;;;;;;10289984;28;20602;-76
2023/11/10 11:13:30;;;;;;;1.77;1.50;;;13.00;39.40;;;;;;10289977;28;20239;-75
2023/11/10 11:18:52;;;;;;;1.23;1.10;;;13.00;39.20;;;;;;10289908;28;20302;-76
2023/11/10 11:23:58;;;;;;;0.90;0.80;;;13.00;39.00;;;;;;10290453;28;20236;-76
2023/11/10 11:29:05;;;;;;;1.60;0.97;;;13.00;38.90;;;;;;10290742;28;20600;-76
2023/11/10 11:34:08;;;;;;;1.03;0.90;;;13.00;39.00;;;;;;10292417;28;20262;-76
2023/11/10 11:39:16;;;;;;;0.67;0.67;;;13.00;38.90;;;;;;10292472;28;20231;-76
2023/11/10 11:44:26;;;;;;;0.70;0.70;;;13.10;38.70;;;;;;10290741;28;20242;-75
2023/11/10 11:49:30;;;;;;;0.80;0.67;;;13.00;38.60;;;;;;10290702;28;20227;-76
2023/11/10 11:54:35;;;;;;;1.30;1.20;;;13.00;38.50;;;;;;10289185;28;20231;-76
2023/11/10 11:59:39;;;;;;;1.17;1.00;;;13.00;38.70;;;;;;10273990;28;20228;-75
2023/11/10 12:04:43;;;;;;;0.90;0.90;;;13.10;38.80;;;;;;10290106;28;20231;-75
2023/11/10 12:09:48;;;;;;;1.00;0.80;;;13.20;38.80;;;;;;10289582;28;20242;-76
2023/11/10 12:14:51;;;;;;;0.60;0.60;;;13.20;38.40;;;;;;10289593;28;20235;-76
2023/11/10 12:19:55;;;;;;;0.90;0.90;;;13.30;38.50;;;;;;10301902;28;20637;-77
2023/11/10 12:25:02;;;;;;;0.80;0.80;;;13.30;38.30;;;;;;10272230;28;20249;-76
2023/11/10 12:30:07;;;;;;;1.40;1.30;;;13.40;38.40;;;;;;10287578;28;20304;-76
2023/11/10 12:35:12;;;;;;;0.83;0.83;;;13.40;38.70;;;;;;10275628;28;20235;-75
2023/11/10 12:40:18;;;;;;;2.10;0.90;;;13.60;37.80;;;;;;10284797;28;20241;-75
2023/11/10 12:45:22;;;;;;;0.70;0.70;;;13.60;37.30;;;;;;10285022;28;21318;-76
2023/11/10 12:50:30;;;;;;;0.50;0.50;;;13.60;37.40;;;;;;10284455;28;20235;-75
2023/11/10 12:55:34;;;;;;;0.53;0.53;;;13.50;37.00;;;;;;10284085;28;20235;-75
2023/11/10 13:00:43;;;;;;;0.57;0.57;;;13.60;37.00;;;;;;10284081;28;20231;-75
2023/11/10 13:05:48;;;;;;;0.60;0.60;;;13.60;36.70;;;;;;10276316;28;20745;-74
2023/11/10 13:10:53;;;;;;;0.50;0.50;;;13.60;37.00;;;;;;10280809;28;20319;-75
2023/11/10 13:15:57;;;;;;;0.37;0.37;;;13.60;36.60;;;;;;10275301;28;20227;-75
2023/11/10 13:21:00;;;;;;;0.80;0.60;;;13.60;37.00;;;;;;10286617;28;20265;-75
2023/11/10 13:26:06;;;;;;;0.90;0.90;;;13.60;37.00;;;;;;10281127;28;20563;-75
2023/11/10 13:31:09;;;;;;;1.37;1.10;;;13.60;36.90;;;;;;10282308;28;20235;-74
2023/11/10 13:36:30;;;;;;;0.70;0.70;;;13.60;37.00;;;;;;10282793;28;20775;-75
2023/11/10 13:41:34;;;;;;;1.50;1.40;;;13.50;37.00;;;;;;10281184;28;20231;-76
2023/11/10 13:46:50;;;;;;;1.53;1.33;;;13.60;37.00;;;;;;10278646;28;20316;-74
2023/11/10 13:51:55;;;;;;;0.90;0.90;;;13.50;37.00;;;;;;10259799;28;20231;-74
2023/11/10 13:57:00;;;;;;;1.83;1.60;;;13.50;36.90;;;;;;10274655;28;20803;-76
2023/11/10 14:02:04;;;;;;;0.90;0.90;;;13.50;36.80;;;;;;10275026;28;20231;-77
2023/11/10 14:07:07;;;;;;;3.17;2.87;;;13.50;37.00;;;;;;10274681;28;20937;-78
2023/11/10 14:12:13;;;;;;;1.13;1.00;;;13.60;36.70;;;;;;10279393;28;20307;-79
2023/11/10 14:17:16;;;;;;;0.70;0.70;;;13.50;36.20;;;;;;10269316;28;20318;-78
2023/11/10 14:22:19;;;;;;;1.00;0.90;;;13.50;36.60;;;;;;10264777;28;20780;-77
2023/11/10 14:27:25;;;;;;;0.67;0.67;;;13.40;36.50;;;;;;10261251;28;20232;-79
2023/11/10 14:32:29;;;;;;;0.70;0.70;;;13.40;36.40;;;;;;10264342;28;20228;-77
2023/11/10 14:37:32;;;;;;;0.50;0.50;;;13.40;36.60;;;;;;10260818;28;20239;-79
2023/11/10 14:42:37;;;;;;;0.60;0.60;;;13.40;36.60;;;;;;10253765;28;20907;-77
2023/11/10 14:47:40;;;;;;;1.10;0.70;;;13.40;36.60;;;;;;10251864;28;20227;-77
2023/11/10 14:52:45;;;;;;;0.60;0.60;;;13.40;36.80;;;;;;10259000;28;20227;-76
2023/11/10 14:57:49;;;;;;;0.50;0.50;;;13.40;36.90;;;;;;10255919;28;20329;-79
2023/11/10 15:02:53;;;;;;;0.57;0.57;;;13.30;36.80;;;;;;10269993;28;20243;-77
2023/11/10 15:07:56;;;;;;;0.70;0.53;;;13.20;36.70;;;;;;10266125;28;20262;-77
2023/11/10 15:13:01;;;;;;;0.60;0.60;;;13.00;36.80;;;;;;10268135;28;20227;-74
2023/11/10 15:18:09;;;;;;;0.63;0.50;;;12.90;37.20;;;;;;10271716;28;20757;-77
2023/11/10 15:23:12;;;;;;;1.10;0.60;;;12.80;37.30;;;;;;10265116;28;20673;-77
2023/11/10 15:28:17;;;;;;;1.57;1.40;;;12.60;37.40;;;;;;10259641;28;20228;-78
2023/11/10 15:33:20;;;;;;;2.90;2.70;;;12.50;37.80;;;;;;10265203;28;20231;-78
2023/11/10 15:38:23;;;;;;;4.07;3.67;;;12.50;37.90;;;;;;10260060;28;20323;-78
2023/11/10 15:43:28;;;;;;;6.43;5.83;;;12.30;37.90;;;;;;10270394;28;20232;-77
2023/11/10 15:48:31;;;;;;;8.73;3.57;;;12.30;38.30;;;;;;10258870;28;20275;-79
2023/11/10 15:53:45;;;;;;;2.50;2.30;;;12.20;39.50;;;;;;10266038;28;20866;-78
2023/11/10 15:58:49;;;;;;;1.70;1.60;;;12.30;38.80;;;;;;10253850;28;20243;-78
2023/11/10 16:03:52;;;;;;;1.97;1.87;;;12.40;38.80;;;;;;10252525;28;21003;-78
2023/11/10 16:08:57;;;;;;;6.30;3.77;;;12.40;38.40;;;;;;10251369;28;20854;-78
2023/11/10 16:14:01;;;;;;;3.63;3.30;;;12.40;38.20;;;;;;10257235;28;20693;-73
2023/11/10 16:19:06;;;;;;;5.10;4.30;;;12.40;38.30;;;;;;10254672;28;20227;-77
2023/11/10 16:24:10;;;;;;;7.50;6.70;;;12.30;37.90;;;;;;10260852;28;20274;-77
2023/11/10 16:29:15;;;;;;;5.63;4.83;;;12.10;37.90;;;;;;10256058;28;20232;-77
2023/11/10 16:34:19;;;;;;;3.20;2.90;;;12.00;38.20;;;;;;10267208;28;20231;-77
2023/11/10 16:39:23;;;;;;;2.50;2.30;;;12.00;38.10;;;;;;10264319;28;20238;-77
2023/11/10 16:44:28;;;;;;;4.40;3.80;;;11.80;37.90;;;;;;10267757;28;20326;-77
2023/11/10 16:49:31;;;;;;;5.17;3.37;;;11.70;38.10;;;;;;10262173;28;20231;-77
2023/11/10 16:54:34;;;;;;;19.03;13.90;;;11.60;38.20;;;;;;10265310;28;20245;-78
2023/11/10 16:59:39;;;;;;;13.33;11.70;;;11.60;38.40;;;;;;10258545;28;20227;-78
2023/11/10 17:04:42;;;;;;;8.37;7.00;;;11.50;38.40;;;;;;10266559;28;20224;-78
2023/11/10 17:09:46;;;;;;;6.37;5.53;;;11.50;38.20;;;;;;10256135;28;20228;-77
2023/11/10 17:14:50;;;;;;;7.03;5.17;;;11.50;38.30;;;;;;10264363;28;20227;-77
2023/11/10 17:19:54;;;;;;;5.50;4.73;;;11.60;38.60;;;;;;10267552;28;20227;-77
2023/11/10 17:24:57;;;;;;;3.87;3.47;;;11.60;38.00;;;;;;10264325;28;20310;-77
2023/11/10 17:30:02;;;;;;;5.57;4.60;;;11.40;37.70;;;;;;10268841;28;20319;-77
2023/11/10 17:35:05;;;;;;;7.13;5.30;;;11.20;38.20;;;;;;10266493;28;20299;-77
2023/11/10 17:40:11;;;;;;;5.67;5.17;;;11.00;38.40;;;;;;10265598;28;20259;-77
2023/11/10 17:45:17;;;;;;;10.73;9.77;;;10.80;38.80;;;;;;10270852;28;20777;-74
2023/11/10 17:50:21;;;;;;;5.30;4.80;;;10.70;39.10;;;;;;10278668;28;20882;-76
2023/11/10 17:55:24;;;;;;;6.33;5.83;;;10.60;39.00;;;;;;10279688;28;20329;-76
2023/11/10 18:00:29;;;;;;;8.03;7.33;;;10.70;39.00;;;;;;10277992;28;20241;-76
2023/11/10 18:05:32;;;;;;;11.20;10.10;;;10.70;39.00;;;;;;10278040;28;20784;-76
2023/11/10 18:10:35;;;;;;;10.17;9.17;;;10.80;38.80;;;;;;10279186;28;20325;-76
2023/11/10 18:15:40;;;;;;;6.90;6.33;;;10.80;38.70;;;;;;10277926;28;20247;-76
2023/11/10 18:20:46;;;;;;;6.43;5.87;;;10.80;38.70;;;;;;10277560;28;20662;-76
2023/11/10 18:25:49;;;;;;;6.87;6.20;;;10.80;38.40;;;;;;10276086;28;20227;-76
2023/11/10 18:30:56;;;;;;;8.87;8.03;;;10.80;38.20;;;;;;10277918;28;20231;-76
2023/11/10 18:35:59;;;;;;;10.50;9.50;;;10.70;38.40;;;;;;10277077;28;20220;-75
2023/11/10 18:41:02;;;;;;;9.90;9.00;;;10.70;38.10;;;;;;10277103;28;20318;-76
2023/11/10 18:46:11;;;;;;;7.80;7.10;;;10.50;38.00;;;;;;10277306;28;20230;-76
2023/11/10 18:51:15;;;;;;;8.60;7.90;;;10.40;38.70;;;;;;10280283;28;20239;-76
2023/11/10 18:56:20;;;;;;;6.23;5.80;;;10.30;38.30;;;;;;10285510;28;20749;-76
2023/11/10 19:01:25;;;;;;;5.57;5.07;;;10.30;39.50;;;;;;10284683;28;20875;-76
2023/11/10 19:06:29;;;;;;;6.00;5.50;;;10.30;38.80;;;;;;10281981;28;20231;-76
2023/11/10 19:11:32;;;;;;;4.73;4.33;;;10.30;38.40;;;;;;10281435;28;20255;-76
2023/11/10 19:16:36;;;;;;;5.40;4.90;;;10.30;38.80;;;;;;10280739;28;20237;-75
2023/11/10 19:21:41;;;;;;;5.10;4.63;;;10.20;38.60;;;;;;10280680;28;20231;-75
2023/11/10 19:26:45;;;;;;;4.70;4.30;;;10.10;38.60;;;;;;10281324;28;20235;-75
2023/11/10 19:31:50;;;;;;;7.97;6.50;;;10.10;38.60;;;;;;10281506;28;20254;-76
2023/11/10 19:36:56;;;;;;;19.43;17.40;;;10.10;38.80;;;;;;10281238;28;20227;-76
2023/11/10 19:42:02;;;;;;;10.77;9.67;;;10.00;38.40;;;;;;10280523;28;20227;-75
2023/11/10 19:47:09;;;;;;;6.37;5.77;;;9.90;39.50;;;;;;10279541;28;20223;-76
2023/11/10 19:52:15;;;;;;;5.97;5.37;;;9.70;40.10;;;;;;10280626;28;20236;-76
2023/11/10 19:57:21;;;;;;;5.37;4.87;;;9.60;39.90;;;;;;10280232;28;21211;-75
2023/11/10 20:02:26;;;;;;;5.87;4.90;;;9.40;40.40;;;;;;10279065;28;20969;-76
2023/11/10 20:07:30;;;;;;;5.23;4.70;;;9.40;40.40;;;;;;10279392;28;20234;-75
2023/11/10 20:12:33;;;;;;;6.37;5.07;;;9.40;40.40;;;;;;10279335;28;20248;-76
2023/11/10 20:17:39;;;;;;;5.47;3.63;;;9.30;40.30;;;;;;10279709;28;20262;-76
2023/11/10 20:22:43;;;;;;;2.67;2.40;;;9.40;41.00;;;;;;10278863;28;20235;-76
2023/11/10 20:27:46;;;;;;;3.50;2.57;;;9.40;40.90;;;;;;10278050;28;20269;-75
2023/11/10 20:32:51;;;;;;;2.60;2.30;;;9.50;40.80;;;;;;10278972;28;20311;-76
2023/11/10 20:37:55;;;;;;;2.67;2.47;;;9.60;40.90;;;;;;10278969;28;20232;-76
2023/11/10 20:42:58;;;;;;;2.13;2.00;;;9.70;40.60;;;;;;10278376;28;20238;-76
2023/11/10 20:48:03;;;;;;;2.10;1.90;;;9.70;40.60;;;;;;10278146;28;20601;-76
2023/11/10 20:53:08;;;;;;;1.80;1.70;;;9.70;40.60;;;;;;10278728;28;20230;-76
2023/11/10 20:58:11;;;;;;;2.50;2.30;;;9.80;40.70;;;;;;10280044;28;20240;-76
2023/11/10 21:03:15;;;;;;;4.00;3.43;;;9.80;40.70;;;;;;10280704;28;20346;-76
2023/11/10 21:08:19;;;;;;;5.67;4.10;;;9.90;40.80;;;;;;10280837;28;20282;-76
2023/11/10 21:13:23;;;;;;;4.70;3.20;;;9.90;40.80;;;;;;10280441;28;20722;-76
2023/11/10 21:18:27;;;;;;;2.40;2.00;;;9.80;40.70;;;;;;10279789;28;20231;-76
2023/11/10 21:23:31;;;;;;;2.03;1.77;;;9.80;40.70;;;;;;10278995;28;20235;-75
2023/11/10 21:28:36;;;;;;;2.87;1.90;;;9.70;40.60;;;;;;10279409;28;20234;-76
2023/11/10 21:33:41;;;;;;;2.13;1.80;;;9.70;40.60;;;;;;10279975;28;20765;-75
2023/11/10 21:38:44;;;;;;;3.30;2.33;;;9.70;41.30;;;;;;10279827;28;20243;-75
2023/11/10 21:43:48;;;;;;;4.47;2.30;;;9.70;40.60;;;;;;10279974;28;20307;-76
2023/11/10 21:48:52;;;;;;;3.00;2.30;;;9.70;40.60;;;;;;10278819;28;20963;-75
2023/11/10 21:53:55;;;;;;;2.63;2.20;;;9.70;40.60;;;;;;10278236;28;20227;-76
2023/11/10 21:58:59;;;;;;;2.40;2.20;;;9.70;40.60;;;;;;10277661;28;20238;-76
2023/11/10 22:04:06;;;;;;;2.60;2.40;;;9.70;40.60;;;;;;10277929;28;20231;-76
2023/11/10 22:09:11;;;;;;;3.07;2.77;;;9.80;40.80;;;;;;10279117;28;20234;-76
2023/11/10 22:14:14;;;;;;;3.70;2.37;;;9.80;40.70;;;;;;10278481;28;20334;-76
2023/11/10 22:19:19;;;;;;;2.60;2.40;;;9.80;40.70;;;;;;10278479;28;20809;-76
2023/11/10 22:24:22;;;;;;;3.33;2.30;;;9.80;40.70;;;;;;10278431;28;20241;-76
2023/11/10 22:29:27;;;;;;;2.57;2.37;;;9.80;40.70;;;;;;10278225;28;20282;-76
2023/11/10 22:34:31;;;;;;;3.27;2.60;;;9.80;40.70;;;;;;10277490;28;20227;-76
2023/11/10 22:39:34;;;;;;;3.43;2.97;;;9.80;40.70;;;;;;10277819;28;20238;-76
2023/11/10 22:44:38;;;;;;;5.77;4.60;;;9.90;40.50;;;;;;10278245;28;20294;-76
2023/11/10 22:49:43;;;;;;;4.00;3.63;;;9.90;40.30;;;;;;10277133;28;20254;-76
2023/11/10 22:54:46;;;;;;;4.27;3.23;;;9.80;40.40;;;;;;10277651;28;20228;-76
2023/11/10 22:59:49;;;;;;;2.97;2.73;;;9.80;40.40;;;;;;10278097;28;20314;-76
2023/11/10 23:04:54;;;;;;;4.10;2.97;;;9.80;40.30;;;;;;10277065;28;20319;-76
2023/11/10 23:09:58;;;;;;;5.30;3.90;;;9.80;40.50;;;;;;10277031;28;20231;-76
2023/11/10 23:15:02;;;;;;;3.03;2.67;;;9.70;40.40;;;;;;10276459;28;20710;-76
2023/11/10 23:20:09;;;;;;;2.43;2.23;;;9.70;40.40;;;;;;10276857;28;20232;-77
2023/11/10 23:25:28;;;;;;;2.37;2.17;;;9.70;40.60;;;;;;10275343;28;20231;-77
2023/11/10 23:30:31;;;;;;;2.40;2.20;;;9.70;40.50;;;;;;10276261;28;20316;-76
2023/11/10 23:35:36;;;;;;;3.00;2.60;;;9.70;40.60;;;;;;10275324;28;20750;-76
2023/11/10 23:40:52;;;;;;;2.63;2.30;;;9.70;40.40;;;;;;10280787;28;20235;-76
2023/11/10 23:45:55;;;;;;;3.17;2.00;;;9.70;40.20;;;;;;10281044;28;20246;-76
2023/11/10 23:51:00;;;;;;;2.40;2.20;;;9.70;40.10;;;;;;10280538;28;20232;-76
2023/11/10 23:56:04;;;;;;;1.90;1.80;;;9.70;40.30;;;;;;10280823;28;20224;-77
